createdAt,value
2023-01-17T00:02:06.665Z,98479.94
2023-01-17T00:04:52.366Z,98490.53
2023-01-17T00:07:39.348Z,98487.13
2023-01-17T00:10:27.463Z,98493.13
2023-01-17T00:13:04.950Z,98500.13
2023-01-17T00:15:31.902Z,98505.50
2023-01-17T00:17:58.943Z,98503.53
2023-01-17T00:20:47.121Z,98509.53
2023-01-17T00:23:42.099Z,98508.34
2023-01-17T00:26:15.797Z,98509.94
2023-01-17T00:28:43.404Z,98510.94
2023-01-17T00:31:12.371Z,98525.72
2023-01-17T00:33:39.436Z,98533.94
2023-01-17T00:36:06.686Z,98536.91
2023-01-17T00:38:35.500Z,98534.28
2023-01-17T00:41:10.328Z,98540.25
2023-01-17T00:43:55.616Z,98550.81
2023-01-17T00:46:40.889Z,98553.38
2023-01-17T00:49:26.078Z,98568.91
2023-01-17T00:52:11.824Z,98581.50
2023-01-17T00:54:56.904Z,98583.44
2023-01-17T00:57:41.926Z,98592.34
2023-01-17T01:00:27.759Z,98599.03
2023-01-17T01:03:12.836Z,98605.56
2023-01-17T01:05:57.606Z,98599.06
2023-01-17T01:08:45.344Z,98593.63
2023-01-17T01:11:36.144Z,98590.06
2023-01-17T01:14:22.136Z,98591.84
2023-01-17T01:17:07.220Z,98591.22
2023-01-17T01:19:52.434Z,98600.63
2023-01-17T01:22:37.896Z,98609.25
2023-01-17T01:25:23.396Z,98609.88
2023-01-17T01:28:08.844Z,98624.28
2023-01-17T01:30:54.242Z,98612.91
2023-01-17T01:33:20.890Z,98621.94
2023-01-17T01:35:53.665Z,98629.28
2023-01-17T01:38:22.669Z,98619.88
2023-01-17T01:40:52.085Z,98625.63
2023-01-17T01:43:21.878Z,98631.03
2023-01-17T01:45:58.232Z,98634.00
2023-01-17T01:48:48.012Z,98631.75
2023-01-17T01:51:19.919Z,98633.91
2023-01-17T01:53:52.786Z,98634.28
2023-01-17T01:56:23.429Z,98633.50
2023-01-17T01:58:52.419Z,98641.63
2023-01-17T02:01:19.846Z,98647.03
2023-01-17T02:03:48.013Z,98660.38
2023-01-17T02:06:39.438Z,98664.75
2023-01-17T02:09:09.223Z,98670.13
2023-01-17T02:11:39.079Z,98676.38
2023-01-17T02:14:05.827Z,98683.59
2023-01-17T02:16:45.120Z,98695.59
2023-01-17T02:19:43.136Z,98699.59
2023-01-17T02:22:31.156Z,98712.22
2023-01-17T02:25:03.790Z,98719.00
2023-01-17T02:28:08.886Z,98710.00
2023-01-17T02:30:39.404Z,98718.78
2023-01-17T02:33:24.444Z,98710.19
2023-01-17T02:36:00.115Z,98704.34
2023-01-17T02:38:45.200Z,98703.13
2023-01-17T02:41:40.783Z,98710.09
2023-01-17T02:44:15.349Z,98703.13
2023-01-17T02:47:24.769Z,98717.44
2023-01-17T02:49:58.449Z,98714.06
2023-01-17T02:52:50.122Z,98715.84
2023-01-17T02:55:30.403Z,98722.03
2023-01-17T02:58:09.049Z,98722.41
2023-01-17T03:00:51.773Z,98726.34
2023-01-17T03:03:37.183Z,98726.34
2023-01-17T03:06:15.170Z,98724.47
2023-01-17T03:08:45.512Z,98722.66
2023-01-17T03:11:13.317Z,98729.66
2023-01-17T03:13:39.959Z,98737.44
2023-01-17T03:16:12.772Z,98740.84
2023-01-17T03:18:39.476Z,98742.63
2023-01-17T03:21:06.070Z,98733.59
2023-01-17T03:23:32.544Z,98739.59
2023-01-17T03:25:59.079Z,98747.19
2023-01-17T03:28:25.539Z,98750.75
2023-01-17T03:30:52.117Z,98753.81
2023-01-17T03:33:18.863Z,98757.03
2023-01-17T03:35:46.374Z,98756.84
2023-01-17T03:38:12.923Z,98767.41
2023-01-17T03:40:39.416Z,98759.63
2023-01-17T03:43:05.928Z,98771.81
2023-01-17T03:45:32.443Z,98772.50
2023-01-17T03:48:00.114Z,98759.09
2023-01-17T03:50:26.881Z,98771.78
2023-01-17T03:52:53.427Z,98765.72
2023-01-17T03:55:19.915Z,98768.03
2023-01-17T03:57:46.389Z,98773.75
2023-01-17T04:00:13.744Z,98768.47
2023-01-17T04:02:40.411Z,98768.84
2023-01-17T04:05:07.136Z,98776.00
2023-01-17T04:07:33.666Z,98774.75
2023-01-17T04:10:00.302Z,98779.63
2023-01-17T04:12:26.813Z,98777.59
2023-01-17T04:14:53.409Z,98788.31
2023-01-17T04:17:20.565Z,98794.63
2023-01-17T04:19:47.593Z,98795.16
2023-01-17T04:22:14.143Z,98802.47
2023-01-17T04:24:40.738Z,98809.66
2023-01-17T04:27:07.311Z,98807.41
2023-01-17T04:29:33.908Z,98805.78
2023-01-17T04:32:00.444Z,98804.16
2023-01-17T04:34:27.083Z,98794.78
2023-01-17T04:36:54.783Z,98789.16
2023-01-17T04:39:21.263Z,98795.66
2023-01-17T04:41:47.955Z,98794.06
2023-01-17T04:44:14.523Z,98778.84
2023-01-17T04:46:41.344Z,98782.44
2023-01-17T04:49:08.114Z,98790.22
2023-01-17T04:51:34.606Z,98787.44
2023-01-17T04:54:01.127Z,98787.63
2023-01-17T04:56:27.673Z,98781.34
2023-01-17T04:58:57.313Z,98789.91
2023-01-17T05:01:24.136Z,98779.53
2023-01-17T05:03:50.702Z,98783.59
2023-01-17T05:06:17.292Z,98782.59
2023-01-17T05:08:43.887Z,98788.75
2023-01-17T05:11:10.471Z,98792.16
2023-01-17T05:13:36.998Z,98793.94
2023-01-17T05:16:03.730Z,98800.28
2023-01-17T05:18:30.400Z,98800.00
2023-01-17T05:21:02.144Z,98796.94
2023-01-17T05:23:28.778Z,98803.09
2023-01-17T05:25:55.267Z,98804.41
2023-01-17T05:28:21.807Z,98806.19
2023-01-17T05:30:48.450Z,98810.91
2023-01-17T05:33:14.987Z,98814.50
2023-01-17T05:35:41.592Z,98812.41
2023-01-17T05:38:08.244Z,98805.78
2023-01-17T05:40:34.777Z,98803.53
2023-01-17T05:43:03.828Z,98808.59
2023-01-17T05:45:32.413Z,98817.53
2023-01-17T05:47:59.246Z,98818.47
2023-01-17T05:50:29.266Z,98826.44
2023-01-17T05:53:04.098Z,98824.66
2023-01-17T05:55:31.493Z,98833.41
2023-01-17T05:57:58.743Z,98841.69
2023-01-17T06:00:25.459Z,98837.47
2023-01-17T06:02:56.523Z,98840.88
2023-01-17T06:05:24.411Z,98849.09
2023-01-17T06:07:50.991Z,98848.75
2023-01-17T06:10:19.205Z,98845.81
2023-01-17T06:12:46.689Z,98849.56
2023-01-17T06:15:15.259Z,98853.94
2023-01-17T06:17:42.145Z,98853.47
2023-01-17T06:20:10.811Z,98853.81
2023-01-17T06:22:37.487Z,98861.88
2023-01-17T06:25:04.360Z,98856.97
2023-01-17T06:27:30.841Z,98852.25
2023-01-17T06:29:57.373Z,98851.53
2023-01-17T06:32:23.845Z,98859.97
2023-01-17T06:34:50.400Z,98856.19
2023-01-17T06:37:17.060Z,98849.72
2023-01-17T06:39:43.637Z,98843.38
2023-01-17T06:42:10.158Z,98841.78
2023-01-17T06:44:39.482Z,98856.06
2023-01-17T06:47:06.199Z,98852.19
2023-01-17T06:49:32.869Z,98852.19
2023-01-17T06:51:59.477Z,98856.56
2023-01-17T06:54:27.097Z,98868.53
2023-01-17T06:56:54.314Z,98864.50
2023-01-17T06:59:21.067Z,98867.59
2023-01-17T07:01:47.604Z,98872.31
2023-01-17T07:04:14.197Z,98875.25
2023-01-17T07:06:41.083Z,98870.56
2023-01-17T07:09:07.612Z,98873.69
2023-01-17T07:11:34.086Z,98877.59
2023-01-17T07:14:00.588Z,98876.28
2023-01-17T07:16:27.210Z,98873.22
2023-01-17T07:18:54.844Z,98872.75
2023-01-17T07:21:21.937Z,98875.69
2023-01-17T07:23:48.751Z,98876.66
2023-01-17T07:26:17.301Z,98877.63
2023-01-17T07:28:44.201Z,98877.81
2023-01-17T07:31:10.863Z,98876.69
2023-01-17T07:33:37.816Z,98888.19
2023-01-17T07:36:09.247Z,98878.00
2023-01-17T07:38:36.007Z,98881.72
2023-01-17T07:41:02.933Z,98880.94
2023-01-17T07:43:29.521Z,98880.13
2023-01-17T07:45:56.295Z,98882.88
2023-01-17T07:48:24.641Z,98884.81
2023-01-17T07:50:56.213Z,98886.44
2023-01-17T07:53:25.125Z,98884.00
2023-01-17T07:55:51.891Z,98885.00
2023-01-17T07:58:18.984Z,98887.59
2023-01-17T08:00:45.796Z,98891.97
2023-01-17T08:03:15.054Z,98890.16
2023-01-17T08:05:43.715Z,98897.94
2023-01-17T08:08:10.376Z,98892.59
2023-01-17T08:10:36.980Z,98892.44
2023-01-17T08:13:03.541Z,98895.97
2023-01-17T08:15:30.134Z,98891.78
2023-01-17T08:17:58.651Z,98888.22
2023-01-17T08:20:27.909Z,98903.59
2023-01-17T08:22:56.572Z,98904.53
2023-01-17T08:25:24.953Z,98910.69
2023-01-17T08:27:56.263Z,98910.88
2023-01-17T08:30:23.731Z,98918.63
2023-01-17T08:32:50.338Z,98906.66
2023-01-17T08:35:16.904Z,98912.66
2023-01-17T08:37:43.657Z,98911.81
2023-01-17T08:40:11.186Z,98920.56
2023-01-17T08:42:40.389Z,98921.22
2023-01-17T08:45:08.989Z,98915.25
2023-01-17T08:47:36.123Z,98919.25
2023-01-17T08:50:04.430Z,98922.03
2023-01-17T08:52:30.984Z,98926.53
2023-01-17T08:54:57.709Z,98926.22
2023-01-17T08:57:24.343Z,98922.66
2023-01-17T08:59:50.938Z,98925.41
2023-01-17T09:02:19.593Z,98923.63
2023-01-17T09:04:48.605Z,98930.59
2023-01-17T09:07:16.851Z,98931.56
2023-01-17T09:09:43.735Z,98936.06
2023-01-17T09:12:10.602Z,98936.72
2023-01-17T09:14:37.817Z,98938.00
2023-01-17T09:17:06.881Z,98944.97
2023-01-17T09:19:33.434Z,98941.88
2023-01-17T09:22:00.083Z,98942.66
2023-01-17T09:24:26.817Z,98947.69
2023-01-17T09:26:53.387Z,98937.97
2023-01-17T09:29:20.074Z,98942.63
2023-01-17T09:31:48.234Z,98954.13
2023-01-17T09:34:15.213Z,98953.78
2023-01-17T09:36:42.272Z,98958.63
2023-01-17T09:39:11.649Z,98958.13
2023-01-17T09:42:17.239Z,98961.53
2023-01-17T09:44:52.265Z,98963.59
2023-01-17T09:47:18.750Z,98958.28
2023-01-17T09:49:47.397Z,98971.69
2023-01-17T09:52:17.714Z,98972.97
2023-01-17T09:54:47.621Z,98971.66
2023-01-17T09:57:17.240Z,98973.91
2023-01-17T10:00:03.187Z,98979.38
2023-01-17T10:02:51.364Z,98972.28
2023-01-17T10:05:50.224Z,98987.28
2023-01-17T10:08:31.383Z,98978.22
2023-01-17T10:11:16.685Z,98979.66
2023-01-17T10:13:56.150Z,98982.53
2023-01-17T10:16:40.542Z,98980.94
2023-01-17T10:19:20.003Z,98979.63
2023-01-17T10:22:16.069Z,98986.25
2023-01-17T10:25:16.253Z,98989.94
2023-01-17T10:27:59.107Z,98990.41
2023-01-17T10:30:33.840Z,98977.75
2023-01-17T10:33:11.868Z,98976.44
2023-01-17T10:35:48.600Z,98980.28
2023-01-17T10:38:16.668Z,98986.56
2023-01-17T10:40:46.149Z,98983.47
2023-01-17T10:43:18.635Z,98992.69
2023-01-17T10:45:53.101Z,98990.72
2023-01-17T10:48:39.596Z,98994.13
2023-01-17T10:51:40.902Z,98989.56
2023-01-17T10:54:19.340Z,98994.75
2023-01-17T10:56:45.958Z,98991.19
2023-01-17T10:59:18.124Z,98987.94
2023-01-17T11:01:45.136Z,98992.63
2023-01-17T11:04:30.857Z,98992.41
2023-01-17T11:07:25.349Z,98995.91
2023-01-17T11:09:54.461Z,98993.13
2023-01-17T11:12:44.165Z,99003.34
2023-01-17T11:15:10.642Z,98995.56
2023-01-17T11:17:41.924Z,98991.84
2023-01-17T11:20:23.535Z,98993.78
2023-01-17T11:23:09.032Z,98993.13
2023-01-17T11:25:35.718Z,98987.66
2023-01-17T11:28:06.297Z,98992.84
2023-01-17T11:30:32.780Z,98984.81
2023-01-17T11:33:06.260Z,98988.72
2023-01-17T11:35:35.342Z,98982.22
2023-01-17T11:38:21.025Z,98980.16
2023-01-17T11:40:49.474Z,98978.88
2023-01-17T11:43:26.527Z,98973.22
2023-01-17T11:46:18.694Z,98979.28
2023-01-17T11:48:57.490Z,98975.41
2023-01-17T11:51:29.790Z,98973.41
2023-01-17T11:54:12.370Z,98976.00
2023-01-17T11:56:41.214Z,98972.28
2023-01-17T11:59:31.587Z,98969.94
2023-01-17T12:02:19.779Z,98967.91
2023-01-17T12:05:03.705Z,98968.63
2023-01-17T12:07:53.635Z,98974.94
2023-01-17T12:10:41.077Z,98975.47
2023-01-17T12:13:48.396Z,98974.25
2023-01-17T12:16:32.033Z,98970.56
2023-01-17T12:19:19.785Z,98970.66
2023-01-17T12:22:18.711Z,98968.94
2023-01-17T12:25:17.424Z,98967.25
2023-01-17T12:28:02.634Z,98966.34
2023-01-17T12:30:53.115Z,98958.81
2023-01-17T12:33:47.407Z,98959.25
2023-01-17T12:36:31.278Z,98957.28
2023-01-17T12:39:06.493Z,98951.53
2023-01-17T12:41:50.981Z,98949.38
2023-01-17T12:44:22.356Z,98943.63
2023-01-17T12:47:02.587Z,98943.91
2023-01-17T12:49:41.751Z,98939.94
2023-01-17T12:52:17.275Z,98936.59
2023-01-17T12:54:48.602Z,98942.66
2023-01-17T12:57:24.113Z,98948.13
2023-01-17T13:00:00.339Z,98947.34
2023-01-17T13:02:33.479Z,98949.75
2023-01-17T13:05:09.045Z,98954.75
2023-01-17T13:07:51.657Z,98957.19
2023-01-17T13:10:31.058Z,98954.00
2023-01-17T13:13:03.573Z,98952.66
2023-01-17T13:15:37.643Z,98943.25
2023-01-17T13:18:14.089Z,98950.84
2023-01-17T13:21:04.797Z,98950.84
2023-01-17T13:23:56.412Z,98950.06
2023-01-17T13:26:32.981Z,98947.28
2023-01-17T13:29:02.483Z,98952.72
2023-01-17T13:31:33.181Z,98949.31
2023-01-17T13:35:00.883Z,98955.53
2023-01-17T13:38:18.388Z,98956.13
2023-01-17T13:40:54.533Z,98949.91
2023-01-17T13:44:03.141Z,98960.53
2023-01-17T13:46:31.199Z,98957.13
2023-01-17T13:49:36.716Z,98954.31
2023-01-17T13:52:09.738Z,98961.97
2023-01-17T13:54:55.782Z,98958.56
2023-01-17T13:57:36.255Z,98967.16
2023-01-17T14:00:24.456Z,98976.13
2023-01-17T14:02:54.649Z,98977.94
2023-01-17T14:05:30.608Z,98965.09
2023-01-17T14:08:12.692Z,98973.72
2023-01-17T14:10:47.243Z,98979.91
2023-01-17T14:13:29.071Z,98986.28
2023-01-17T14:15:55.981Z,98984.06
2023-01-17T14:18:33.164Z,98982.63
2023-01-17T14:21:23.560Z,98983.63
2023-01-17T14:24:04.874Z,98984.78
2023-01-17T14:26:48.300Z,98993.75
2023-01-17T14:29:42.846Z,98984.91
2023-01-17T14:32:13.079Z,98986.41
2023-01-17T14:34:40.034Z,98982.41
2023-01-17T14:37:15.974Z,98980.78
2023-01-17T14:39:47.844Z,98985.53
2023-01-17T14:42:17.885Z,98982.50
2023-01-17T14:44:51.437Z,98981.09
2023-01-17T14:47:18.086Z,98981.00
2023-01-17T14:49:45.077Z,98979.75
2023-01-17T14:52:17.340Z,98981.28
2023-01-17T14:54:52.486Z,98982.47
2023-01-17T14:57:29.466Z,98985.41
2023-01-17T15:00:19.051Z,98985.78
2023-01-17T15:02:47.703Z,98984.53
2023-01-17T15:05:20.510Z,98989.63
2023-01-17T15:07:52.986Z,98993.78
2023-01-17T15:10:28.078Z,98999.03
2023-01-17T15:12:56.370Z,98998.13
2023-01-17T15:15:35.176Z,99005.00
2023-01-17T15:18:29.457Z,98993.56
2023-01-17T15:21:05.032Z,98996.06
2023-01-17T15:23:43.572Z,99009.56
2023-01-17T15:26:15.131Z,99013.66
2023-01-17T15:28:44.817Z,99008.81
2023-01-17T15:31:17.658Z,99009.34
2023-01-17T15:33:49.487Z,99020.28
2023-01-17T15:36:27.797Z,99016.56
2023-01-17T15:39:17.992Z,99020.03
2023-01-17T15:41:44.662Z,99011.19
2023-01-17T15:44:48.607Z,99026.28
2023-01-17T15:47:38.985Z,99012.41
2023-01-17T15:50:28.534Z,99016.66
2023-01-17T15:53:06.963Z,99017.34
2023-01-17T15:55:38.428Z,99008.63
2023-01-17T15:58:22.966Z,99017.94
2023-01-17T16:00:49.569Z,99010.81
2023-01-17T16:03:37.563Z,99012.31
2023-01-17T16:06:50.313Z,99018.19
2023-01-17T16:09:24.894Z,99014.66
2023-01-17T16:11:51.492Z,99019.56
2023-01-17T16:14:18.106Z,99015.69
2023-01-17T16:16:54.066Z,99022.16
2023-01-17T16:19:21.446Z,99024.28
2023-01-17T16:21:48.508Z,99018.00
2023-01-17T16:24:15.346Z,99020.31
2023-01-17T16:26:41.931Z,99019.00
2023-01-17T16:29:08.580Z,99031.66
2023-01-17T16:31:35.404Z,99026.19
2023-01-17T16:34:02.089Z,99030.88
2023-01-17T16:36:28.827Z,99033.97
2023-01-17T16:38:55.398Z,99033.50
2023-01-17T16:41:22.469Z,99037.22
2023-01-17T16:44:07.718Z,99032.38
2023-01-17T16:46:38.085Z,99035.47
2023-01-17T16:49:05.047Z,99035.78
2023-01-17T16:51:31.887Z,99041.13
2023-01-17T16:53:59.656Z,99044.69
2023-01-17T16:56:26.334Z,99039.03
2023-01-17T16:58:53.596Z,99046.19
2023-01-17T17:01:22.542Z,99042.78
2023-01-17T17:03:49.411Z,99048.28
2023-01-17T17:06:16.243Z,99045.22
2023-01-17T17:08:43.269Z,99050.53
2023-01-17T17:11:18.566Z,99060.41
2023-01-17T17:13:47.151Z,99064.16
2023-01-17T17:16:23.794Z,99071.25
2023-01-17T17:19:02.408Z,99073.22
2023-01-17T17:21:30.661Z,99073.38
2023-01-17T17:23:59.074Z,99074.66
2023-01-17T17:26:28.862Z,99074.84
2023-01-17T17:28:55.649Z,99080.97
2023-01-17T17:31:22.715Z,99084.22
2023-01-17T17:33:49.654Z,99084.66
2023-01-17T17:36:17.476Z,99085.66
2023-01-17T17:38:53.587Z,99085.97
2023-01-17T17:41:45.622Z,99084.03
2023-01-17T17:44:12.386Z,99089.19
2023-01-17T17:46:39.089Z,99092.91
2023-01-17T17:49:08.749Z,99099.88
2023-01-17T17:51:38.140Z,99106.78
2023-01-17T17:54:10.830Z,99110.06
2023-01-17T17:56:38.670Z,99109.75
2023-01-17T17:59:07.684Z,99114.09
2023-01-17T18:01:38.117Z,99122.81
2023-01-17T18:04:07.479Z,99117.50
2023-01-17T18:06:35.206Z,99122.66
2023-01-17T18:09:02.493Z,99127.03
2023-01-17T18:11:30.369Z,99139.00
2023-01-17T18:14:00.277Z,99133.50
2023-01-17T18:16:32.672Z,99137.84
2023-01-17T18:18:59.748Z,99143.34
2023-01-17T18:21:29.203Z,99145.28
2023-01-17T18:24:01.106Z,99149.63
2023-01-17T18:26:30.474Z,99155.28
2023-01-17T18:28:58.931Z,99159.78
2023-01-17T18:31:27.550Z,99159.97
2023-01-17T18:33:55.044Z,99167.22
2023-01-17T18:36:23.683Z,99170.13
2023-01-17T18:38:50.631Z,99176.91
2023-01-17T18:41:20.461Z,99186.75
2023-01-17T18:43:50.535Z,99191.94
2023-01-17T18:46:19.465Z,99179.19
2023-01-17T18:48:46.602Z,99185.16
2023-01-17T18:51:15.545Z,99182.44
2023-01-17T18:53:44.355Z,99194.22
2023-01-17T18:56:17.737Z,99187.13
2023-01-17T18:58:46.086Z,99180.97
2023-01-17T19:01:18.583Z,99189.03
2023-01-17T19:03:50.484Z,99187.13
2023-01-17T19:06:19.626Z,99192.13
2023-01-17T19:08:46.381Z,99198.44
2023-01-17T19:11:12.909Z,99201.16
2023-01-17T19:13:41.950Z,99198.09
2023-01-17T19:16:12.872Z,99205.84
2023-01-17T19:18:39.668Z,99198.38
2023-01-17T19:21:14.376Z,99201.13
2023-01-17T19:23:41.687Z,99195.16
2023-01-17T19:26:09.408Z,99207.41
2023-01-17T19:28:45.853Z,99205.66
2023-01-17T19:31:20.365Z,99207.72
2023-01-17T19:33:48.335Z,99210.47
2023-01-17T19:36:18.677Z,99222.75
2023-01-17T19:38:58.689Z,99211.91
2023-01-17T19:41:30.509Z,99217.06
2023-01-17T19:44:01.414Z,99208.66
2023-01-17T19:46:28.433Z,99219.00
2023-01-17T19:48:56.967Z,99218.19
2023-01-17T19:51:24.758Z,99219.97
2023-01-17T19:53:51.455Z,99222.69
2023-01-17T19:56:20.619Z,99228.38
2023-01-17T19:58:47.747Z,99226.59
2023-01-17T20:01:24.686Z,99227.28
2023-01-17T20:03:52.031Z,99228.06
2023-01-17T20:06:23.219Z,99231.63
2023-01-17T20:08:50.090Z,99225.78
2023-01-17T20:11:23.650Z,99223.50
2023-01-17T20:13:54.552Z,99229.81
2023-01-17T20:16:22.059Z,99235.94
2023-01-17T20:18:49.650Z,99234.47
2023-01-17T20:21:25.757Z,99226.06
2023-01-17T20:23:54.342Z,99223.78
2023-01-17T20:26:24.139Z,99227.16
2023-01-17T20:28:52.059Z,99230.59
2023-01-17T20:31:24.162Z,99227.16
2023-01-17T20:33:53.311Z,99227.16
2023-01-17T20:36:22.400Z,99222.00
2023-01-17T20:38:49.844Z,99228.00
2023-01-17T20:41:24.774Z,99229.44
2023-01-17T20:43:54.075Z,99232.19
2023-01-17T20:46:22.923Z,99231.53
2023-01-17T20:48:50.809Z,99238.47
2023-01-17T20:51:18.676Z,99237.84
2023-01-17T20:53:46.331Z,99235.38
2023-01-17T20:56:15.048Z,99233.91
2023-01-17T20:58:42.362Z,99236.81
2023-01-17T21:01:11.286Z,99241.19
2023-01-17T21:03:39.361Z,99236.97
2023-01-17T21:06:11.291Z,99232.47
2023-01-17T21:08:40.500Z,99241.81
2023-01-17T21:11:08.984Z,99236.97
2023-01-17T21:13:35.610Z,99239.72
2023-01-17T21:16:02.962Z,99239.72
2023-01-17T21:18:32.856Z,99257.13
2023-01-17T21:21:08.030Z,99257.94
2023-01-17T21:23:39.076Z,99253.22
2023-01-17T21:26:07.249Z,99253.38
2023-01-17T21:28:39.482Z,99252.13
2023-01-17T21:31:26.914Z,99254.03
2023-01-17T21:33:58.721Z,99256.59
2023-01-17T21:36:29.047Z,99251.31
2023-01-17T21:38:57.923Z,99247.25
2023-01-17T21:41:25.879Z,99250.63
2023-01-17T21:43:57.611Z,99253.38
2023-01-17T21:46:24.663Z,99254.31
2023-01-17T21:48:51.316Z,99257.88
2023-01-17T21:51:19.626Z,99256.25
2023-01-17T21:53:46.233Z,99257.38
2023-01-17T21:56:32.875Z,99253.97
2023-01-17T21:59:00.289Z,99250.88
2023-01-17T22:01:29.706Z,99251.19
2023-01-17T22:04:01.188Z,99252.97
2023-01-17T22:06:30.666Z,99260.06
2023-01-17T22:08:58.123Z,99254.06
2023-01-17T22:11:27.175Z,99260.34
2023-01-17T22:13:53.950Z,99263.06
2023-01-17T22:16:25.941Z,99264.84
2023-01-17T22:18:52.655Z,99272.09
2023-01-17T22:21:24.381Z,99265.47
2023-01-17T22:23:53.962Z,99270.75
2023-01-17T22:26:22.515Z,99263.97
2023-01-17T22:28:49.111Z,99277.03
2023-01-17T22:31:21.228Z,99285.91
2023-01-17T22:33:53.459Z,99279.94
2023-01-17T22:36:20.316Z,99285.09
2023-01-17T22:38:47.128Z,99283.44
2023-01-17T22:41:16.847Z,99284.41
2023-01-17T22:43:46.647Z,99285.50
2023-01-17T22:46:16.265Z,99290.03
2023-01-17T22:48:43.000Z,99296.28
2023-01-17T22:51:12.172Z,99292.91
2023-01-17T22:53:46.369Z,99292.53
2023-01-17T22:56:16.331Z,99302.19
2023-01-17T22:58:45.047Z,99288.59
2023-01-17T23:01:17.606Z,99293.13
2023-01-17T23:03:45.370Z,99291.63
2023-01-17T23:06:15.150Z,99290.03
2023-01-17T23:08:44.619Z,99291.94
2023-01-17T23:11:46.088Z,99287.88
2023-01-17T23:14:22.732Z,99289.78
2023-01-17T23:17:20.350Z,99285.72
2023-01-17T23:19:51.373Z,99288.63
2023-01-17T23:22:23.468Z,99286.16
2023-01-17T23:25:05.215Z,99290.69
2023-01-17T23:27:55.946Z,99287.25
2023-01-17T23:30:25.225Z,99279.16
2023-01-17T23:32:54.783Z,99284.47
2023-01-17T23:35:24.123Z,99281.22
2023-01-17T23:38:09.240Z,99287.34
2023-01-17T23:40:37.651Z,99287.63
2023-01-17T23:43:23.044Z,99292.94
2023-01-17T23:45:51.005Z,99286.13
2023-01-17T23:48:17.900Z,99291.63
2023-01-17T23:50:47.856Z,99287.38
2023-01-17T23:53:22.472Z,99292.53
2023-01-17T23:55:52.083Z,99296.09
2023-01-17T23:58:20.639Z,99297.06
